Time;durP1;ratioP1;P1;durP2;ratioP2;P2;SDS_P1;SDS_P2;PMS_P1;PMS_P2;Temp;Humidity;BMP_temperature;BMP_pressure;BME280_temperature;BME280_humidity;BME280_pressure;Samples;Min_cycle;Max_cycle;Signal;HPM_P1;HPM_P2
2022/01/16 00:00:48;;;;;;;5.70;4.18;;;;;;;;;;5014820;28;20095;-81
2022/01/16 00:05:57;;;;;;;7.78;4.40;;;;;;;;;;5033488;28;20163;-84
2022/01/16 00:08:23;;;;;;;7.30;4.50;;;;;;;;;;5015493;28;20793;-83
2022/01/16 00:10:49;;;;;;;5.85;3.03;;;;;;;;;;5032525;28;20025;-82
2022/01/16 00:13:15;;;;;;;8.70;5.13;;;;;;;;;;5031738;28;20056;-84
2022/01/16 00:15:44;;;;;;;9.07;4.75;;;;;;;;;;5033008;28;20075;-83
2022/01/16 00:18:19;;;;;;;10.00;5.43;;;;;;;;;;5032916;28;20048;-82
2022/01/16 00:20:45;;;;;;;7.15;3.17;;;;;;;;;;5030220;28;20277;-82
2022/01/16 00:23:10;;;;;;;6.30;4.03;;;;;;;;;;5014640;28;20049;-83
2022/01/16 00:25:36;;;;;;;4.25;2.90;;;;;;;;;;5032304;28;20013;-85
2022/01/16 00:28:02;;;;;;;8.45;4.68;;;;;;;;;;5032704;28;20033;-83
2022/01/16 00:30:27;;;;;;;7.03;4.28;;;;;;;;;;5031114;28;20091;-84
2022/01/16 00:32:59;;;;;;;8.88;4.13;;;;;;;;;;5014738;28;20087;-83
2022/01/16 00:35:24;;;;;;;8.45;4.75;;;;;;;;;;5014452;28;20109;-83
2022/01/16 00:37:52;;;;;;;9.80;4.55;;;;;;;;;;5014883;28;20478;-84
2022/01/16 00:40:18;;;;;;;8.50;4.50;;;;;;;;;;5014485;28;20025;-85
2022/01/16 00:42:44;;;;;;;6.50;4.03;;;;;;;;;;5032053;28;20057;-82
2022/01/16 00:45:10;;;;;;;10.38;5.20;;;;;;;;;;5031717;28;20508;-83
2022/01/16 00:47:36;;;;;;;4.85;3.22;;;;;;;;;;5013452;28;20386;-82
2022/01/16 00:50:03;;;;;;;10.05;5.18;;;;;;;;;;5013645;28;20029;-83
2022/01/16 00:52:29;;;;;;;6.65;3.40;;;;;;;;;;5032052;28;20025;-82
2022/01/16 00:54:58;;;;;;;6.57;4.50;;;;;;;;;;5032408;28;20497;-83
2022/01/16 00:57:24;;;;;;;8.50;4.60;;;;;;;;;;5014164;28;20025;-82
2022/01/16 00:59:49;;;;;;;4.97;2.78;;;;;;;;;;5011170;28;20037;-82
2022/01/16 01:02:15;;;;;;;8.70;4.28;;;;;;;;;;5013911;28;20052;-81
2022/01/16 01:04:44;;;;;;;8.27;4.03;;;;;;;;;;5014167;28;20052;-84
2022/01/16 01:07:10;;;;;;;10.27;4.47;;;;;;;;;;5031632;28;20489;-84
2022/01/16 01:09:36;;;;;;;9.18;4.60;;;;;;;;;;5014282;28;20064;-83
2022/01/16 01:12:03;;;;;;;7.15;3.65;;;;;;;;;;5013857;28;20074;-82
2022/01/16 01:14:52;;;;;;;7.10;3.75;;;;;;;;;;5013984;28;20075;-83
2022/01/16 01:17:23;;;;;;;9.15;4.63;;;;;;;;;;5012644;28;20488;-83
2022/01/16 01:19:49;;;;;;;7.75;3.53;;;;;;;;;;5031906;28;20036;-83
2022/01/16 01:22:14;;;;;;;5.72;3.72;;;;;;;;;;5031505;28;20468;-81
2022/01/16 01:24:40;;;;;;;5.68;4.03;;;;;;;;;;5013680;28;20088;-81
2022/01/16 01:27:13;;;;;;;5.72;3.35;;;;;;;;;;5013808;28;20079;-85
2022/01/16 01:29:44;;;;;;;5.15;2.90;;;;;;;;;;5013733;28;20366;-82
2022/01/16 01:32:09;;;;;;;9.18;3.80;;;;;;;;;;5031381;28;20037;-82
2022/01/16 01:34:36;;;;;;;4.88;2.95;;;;;;;;;;5031248;28;20026;-82
2022/01/16 01:37:01;;;;;;;8.55;4.53;;;;;;;;;;5031582;28;20591;-83
2022/01/16 01:39:27;;;;;;;9.90;4.93;;;;;;;;;;5031787;28;20029;-83
2022/01/16 01:42:03;;;;;;;5.93;4.45;;;;;;;;;;5031056;28;20029;-82
2022/01/16 01:52:56;;;;;;;8.68;5.00;;;;;;;;;;5008503;28;20045;-81
2022/01/16 01:55:22;;;;;;;6.63;4.60;;;;;;;;;;5011804;28;20044;-83
2022/01/16 01:57:47;;;;;;;6.40;3.90;;;;;;;;;;5030815;28;20029;-81
2022/01/16 02:00:17;;;;;;;6.53;3.45;;;;;;;;;;5030783;28;20048;-84
2022/01/16 02:03:42;;;;;;;7.43;4.47;;;;;;;;;;5030353;28;20033;-83
2022/01/16 02:05:34;;;;;;;6.28;2.63;;;;;;;;;;5019723;28;20033;-83
2022/01/16 02:08:00;;;;;;;6.03;3.67;;;;;;;;;;5031288;28;20044;-84
2022/01/16 02:10:25;;;;;;;6.43;4.45;;;;;;;;;;5013459;28;20029;-84
2022/01/16 02:12:59;;;;;;;6.30;3.83;;;;;;;;;;5031247;28;20033;-84
2022/01/16 02:31:58;;;;;;;2.30;1.48;;;;;;;;;;5030599;28;20118;-84
2022/01/16 02:34:35;;;;;;;2.08;1.20;;;;;;;;;;5028751;28;20381;-83
2022/01/16 02:37:06;;;;;;;3.88;1.35;;;;;;;;;;5029981;28;20025;-84
2022/01/16 02:39:37;;;;;;;2.92;1.33;;;;;;;;;;5013391;28;20037;-84
2022/01/16 02:42:07;;;;;;;2.33;1.55;;;;;;;;;;5029828;28;20026;-83
2022/01/16 02:45:02;;;;;;;3.05;1.52;;;;;;;;;;5029990;28;20021;-84
2022/01/16 02:47:20;;;;;;;2.65;1.30;;;;;;;;;;5028419;28;20422;-83
2022/01/16 02:49:48;;;;;;;4.13;1.70;;;;;;;;;;5027944;28;20466;-84
2022/01/16 02:52:18;;;;;;;1.85;1.20;;;;;;;;;;5030082;28;20532;-84
2022/01/16 02:54:45;;;;;;;3.75;1.67;;;;;;;;;;5012578;28;20500;-82
2022/01/16 02:57:14;;;;;;;2.50;1.55;;;;;;;;;;5030482;28;20155;-84
2022/01/16 02:59:47;;;;;;;2.85;1.48;;;;;;;;;;5030904;28;20036;-84
2022/01/16 03:02:15;;;;;;;9.88;4.68;;;;;;;;;;5028355;28;20025;-84
2022/01/16 03:04:42;;;;;;;13.70;7.18;;;;;;;;;;5030900;28;20035;-82
2022/01/16 03:07:08;;;;;;;10.93;5.60;;;;;;;;;;5030415;28;20025;-84
2022/01/16 03:10:06;;;;;;;11.02;5.00;;;;;;;;;;5031036;28;20044;-83
2022/01/16 03:12:19;;;;;;;8.48;4.80;;;;;;;;;;5032142;28;20496;-85
2022/01/16 03:14:45;;;;;;;6.78;3.45;;;;;;;;;;5016584;28;20116;-86
2022/01/16 03:17:11;;;;;;;4.85;2.63;;;;;;;;;;5016821;28;20112;-83
2022/01/16 03:22:22;;;;;;;6.38;3.03;;;;;;;;;;5034052;28;20143;-86
2022/01/16 03:24:47;;;;;;;5.22;2.38;;;;;;;;;;5030689;28;20108;-86
2022/01/16 03:27:15;;;;;;;7.10;2.25;;;;;;;;;;5034384;28;20028;-88
2022/01/16 03:29:43;;;;;;;5.60;2.80;;;;;;;;;;5015688;28;20108;-84
2022/01/16 03:32:12;;;;;;;3.95;1.80;;;;;;;;;;5034606;28;20492;-84
2022/01/16 03:34:38;;;;;;;3.80;2.40;;;;;;;;;;5016754;28;20108;-86
2022/01/16 03:37:03;;;;;;;4.95;2.50;;;;;;;;;;5013567;28;20038;-82
2022/01/16 03:39:29;;;;;;;3.83;1.92;;;;;;;;;;5033807;28;20021;-84
2022/01/16 03:41:56;;;;;;;8.02;4.50;;;;;;;;;;5016161;28;20100;-83
2022/01/16 03:44:22;;;;;;;6.85;3.72;;;;;;;;;;5016222;28;20434;-82
2022/01/16 03:46:49;;;;;;;3.83;2.30;;;;;;;;;;5013888;28;20028;-82
2022/01/16 03:49:20;;;;;;;6.82;3.33;;;;;;;;;;5033799;28;20499;-85
2022/01/16 03:51:48;;;;;;;4.57;2.90;;;;;;;;;;5033324;28;20025;-85
2022/01/16 03:54:17;;;;;;;5.63;3.33;;;;;;;;;;5033808;28;20033;-84
2022/01/16 03:56:46;;;;;;;4.38;2.47;;;;;;;;;;5033707;28;20381;-85
2022/01/16 03:59:12;;;;;;;6.97;3.50;;;;;;;;;;5033425;28;20025;-85
2022/01/16 04:01:38;;;;;;;7.38;3.58;;;;;;;;;;5033784;28;20818;-86
2022/01/16 04:04:04;;;;;;;4.95;2.90;;;;;;;;;;5033633;28;20040;-83
2022/01/16 04:06:30;;;;;;;5.32;3.00;;;;;;;;;;5033765;28;20014;-84
2022/01/16 04:08:56;;;;;;;5.57;3.72;;;;;;;;;;5033585;28;20033;-84
2022/01/16 04:11:24;;;;;;;9.18;4.60;;;;;;;;;;5033547;28;20022;-83
2022/01/16 04:13:52;;;;;;;16.58;7.20;;;;;;;;;;5033168;28;20040;-84
2022/01/16 04:16:20;;;;;;;10.88;5.93;;;;;;;;;;5015014;28;20075;-82
2022/01/16 04:18:50;;;;;;;6.72;3.20;;;;;;;;;;5033111;28;20029;-82
2022/01/16 04:21:20;;;;;;;6.28;2.80;;;;;;;;;;5032720;28;20028;-83
2022/01/16 04:23:45;;;;;;;;;;;;;;;;;;5030048;28;20053;-84
2022/01/16 04:26:11;;;;;;;6.55;2.92;;;;;;;;;;5014942;28;19964;-82
2022/01/16 04:28:36;;;;;;;9.25;3.60;;;;;;;;;;5032918;28;20450;-82
2022/01/16 04:31:02;;;;;;;6.80;3.08;;;;;;;;;;5014123;28;20033;-81
2022/01/16 04:33:28;;;;;;;7.18;3.45;;;;;;;;;;5014555;28;20026;-83
2022/01/16 04:35:54;;;;;;;7.45;3.42;;;;;;;;;;5031524;28;20112;-81
2022/01/16 04:38:20;;;;;;;7.38;2.92;;;;;;;;;;5032262;28;20521;-84
2022/01/16 04:43:47;;;;;;;6.93;3.10;;;;;;;;;;5032321;28;20048;-83
2022/01/16 04:43:52;;;;;;;5.35;2.53;;;;;;;;;;5032483;28;20485;-83
2022/01/16 04:46:26;;;;;;;9.70;5.85;;;;;;;;;;5032709;28;20052;-82
2022/01/16 04:48:55;;;;;;;6.95;3.20;;;;;;;;;;5032666;28;20095;-82
2022/01/16 04:51:22;;;;;;;7.97;4.53;;;;;;;;;;5031979;28;20051;-85
2022/01/16 04:53:48;;;;;;;12.02;5.50;;;;;;;;;;5014758;28;20437;-82
2022/01/16 04:56:14;;;;;;;9.60;4.95;;;;;;;;;;5032487;28;20029;-82
2022/01/16 04:58:41;;;;;;;8.25;3.97;;;;;;;;;;5014635;28;20033;-84
2022/01/16 05:01:08;;;;;;;4.07;2.45;;;;;;;;;;5014033;28;20041;-83
2022/01/16 05:03:35;;;;;;;5.30;2.72;;;;;;;;;;5014441;28;20037;-82
2022/01/16 05:06:02;;;;;;;6.45;3.63;;;;;;;;;;5013785;28;20037;-82
2022/01/16 05:08:28;;;;;;;7.65;3.17;;;;;;;;;;5030894;28;20461;-81
2022/01/16 05:10:56;;;;;;;6.30;2.88;;;;;;;;;;5031465;28;20355;-82
2022/01/16 05:18:33;;;;;;;3.53;2.47;;;;;;;;;;5030425;28;20032;-80
2022/01/16 05:20:59;;;;;;;4.82;2.67;;;;;;;;;;5031646;28;20025;-84
2022/01/16 05:23:25;;;;;;;3.47;2.28;;;;;;;;;;5012959;28;20044;-83
2022/01/16 05:25:51;;;;;;;6.10;3.47;;;;;;;;;;5007633;28;20036;-84
2022/01/16 05:28:16;;;;;;;5.78;2.85;;;;;;;;;;5031807;28;20037;-82
2022/01/16 05:30:42;;;;;;;5.57;2.30;;;;;;;;;;5010006;28;20552;-83
2022/01/16 05:33:08;;;;;;;5.85;3.10;;;;;;;;;;5031603;28;20029;-84
2022/01/16 05:35:34;;;;;;;6.63;4.78;;;;;;;;;;5013298;28;20029;-85
2022/01/16 05:37:59;;;;;;;7.68;4.28;;;;;;;;;;5013880;28;20077;-85
2022/01/16 05:40:25;;;;;;;6.10;3.33;;;;;;;;;;5031783;28;20551;-85
2022/01/16 05:42:50;;;;;;;7.55;3.67;;;;;;;;;;5013873;28;20032;-85
2022/01/16 05:45:16;;;;;;;6.07;3.00;;;;;;;;;;5018959;28;20025;-82
2022/01/16 05:47:41;;;;;;;5.53;2.65;;;;;;;;;;5031475;28;20067;-84
2022/01/16 05:50:07;;;;;;;7.20;3.30;;;;;;;;;;5013785;28;20041;-83
2022/01/16 05:52:33;;;;;;;6.88;2.85;;;;;;;;;;5031332;28;20021;-83
2022/01/16 05:54:58;;;;;;;4.82;2.67;;;;;;;;;;5031002;28;20029;-83
2022/01/16 05:57:24;;;;;;;4.03;2.55;;;;;;;;;;5013576;28;20033;-83
2022/01/16 05:59:50;;;;;;;6.32;2.88;;;;;;;;;;5031165;28;20090;-83
2022/01/16 06:02:15;;;;;;;3.15;2.25;;;;;;;;;;5031312;28;20444;-83
2022/01/16 06:04:41;;;;;;;6.20;3.40;;;;;;;;;;5031198;28;20079;-85
2022/01/16 06:07:07;;;;;;;8.98;4.72;;;;;;;;;;5030623;28;20032;-82
2022/01/16 06:09:32;;;;;;;5.05;3.38;;;;;;;;;;5028972;28;20033;-82
2022/01/16 06:11:58;;;;;;;4.93;3.17;;;;;;;;;;5030033;28;20473;-85
2022/01/16 06:14:24;;;;;;;5.00;2.65;;;;;;;;;;5011210;28;20021;-83
2022/01/16 06:16:51;;;;;;;5.53;2.58;;;;;;;;;;5028860;28;20029;-84
2022/01/16 06:19:16;;;;;;;6.97;3.85;;;;;;;;;;5012636;28;20474;-82
2022/01/16 06:21:42;;;;;;;8.60;5.32;;;;;;;;;;5030620;28;20094;-82
2022/01/16 06:24:07;;;;;;;9.88;4.10;;;;;;;;;;5011417;28;20056;-84
2022/01/16 06:26:33;;;;;;;9.05;4.25;;;;;;;;;;5025746;28;20024;-82
2022/01/16 06:28:59;;;;;;;6.55;3.28;;;;;;;;;;5025222;28;20030;-81
2022/01/16 06:31:24;;;;;;;6.50;3.40;;;;;;;;;;5026807;28;20111;-85
2022/01/16 06:33:50;;;;;;;5.28;2.85;;;;;;;;;;5031017;28;20033;-83
2022/01/16 06:36:16;;;;;;;5.82;3.30;;;;;;;;;;5030881;28;20037;-84
2022/01/16 06:38:42;;;;;;;5.43;2.97;;;;;;;;;;5030657;28;20465;-82
2022/01/16 06:41:08;;;;;;;6.72;4.18;;;;;;;;;;5028554;28;20112;-81
2022/01/16 06:43:33;;;;;;;5.40;2.63;;;;;;;;;;5030643;28;20040;-83
2022/01/16 06:45:59;;;;;;;6.70;3.22;;;;;;;;;;5013758;28;20022;-83
2022/01/16 06:48:25;;;;;;;3.15;2.55;;;;;;;;;;5034612;28;20083;-82
2022/01/16 06:50:50;;;;;;;7.10;3.50;;;;;;;;;;5034852;28;20145;-84
2022/01/16 06:53:16;;;;;;;4.32;2.72;;;;;;;;;;5034524;28;20052;-85
2022/01/16 06:55:41;;;;;;;4.40;2.40;;;;;;;;;;5034031;28;20021;-84
2022/01/16 06:58:06;;;;;;;6.00;2.47;;;;;;;;;;5029962;28;20034;-84
2022/01/16 07:00:32;;;;;;;6.75;3.13;;;;;;;;;;5014868;28;20079;-83
2022/01/16 07:02:58;;;;;;;9.55;5.38;;;;;;;;;;5035502;28;20030;-85
2022/01/16 07:05:23;;;;;;;14.02;6.45;;;;;;;;;;5034151;28;20022;-85
2022/01/16 07:07:48;;;;;;;9.88;5.15;;;;;;;;;;5016712;28;20389;-83
2022/01/16 07:10:14;;;;;;;11.68;5.47;;;;;;;;;;5033784;28;20022;-82
2022/01/16 07:12:39;;;;;;;14.48;8.35;;;;;;;;;;5034365;28;20495;-82
2022/01/16 07:15:05;;;;;;;14.48;8.50;;;;;;;;;;5034510;28;20117;-82
2022/01/16 07:17:31;;;;;;;12.57;6.00;;;;;;;;;;5016612;28;20056;-84
2022/01/16 07:19:56;;;;;;;13.35;6.25;;;;;;;;;;5034018;28;20029;-85
2022/01/16 07:22:23;;;;;;;11.23;7.50;;;;;;;;;;5034149;28;20367;-84
2022/01/16 07:24:52;;;;;;;12.07;6.97;;;;;;;;;;5033993;28;20029;-82
2022/01/16 07:27:18;;;;;;;9.43;5.37;;;;;;;;;;5033840;28;20029;-81
2022/01/16 07:29:44;;;;;;;9.10;5.03;;;;;;;;;;5034321;28;20108;-89
2022/01/16 07:32:09;;;;;;;7.68;5.05;;;;;;;;;;5016479;28;20112;-84
2022/01/16 07:34:35;;;;;;;13.88;6.82;;;;;;;;;;5033558;28;20033;-83
2022/01/16 07:37:00;;;;;;;13.48;7.88;;;;;;;;;;5033608;28;20033;-83
2022/01/16 07:39:26;;;;;;;9.40;6.45;;;;;;;;;;5033947;28;20040;-86
2022/01/16 07:41:52;;;;;;;12.70;6.97;;;;;;;;;;5033858;28;20025;-83
2022/01/16 07:44:17;;;;;;;7.82;5.05;;;;;;;;;;5033764;28;20049;-83
2022/01/16 07:46:43;;;;;;;8.70;5.55;;;;;;;;;;5033708;28;20017;-83
2022/01/16 07:49:08;;;;;;;10.65;5.15;;;;;;;;;;5032020;28;20074;-84
2022/01/16 07:51:34;;;;;;;7.88;5.43;;;;;;;;;;5033490;28;20075;-84
2022/01/16 07:53:59;;;;;;;10.95;5.63;;;;;;;;;;5033374;28;20028;-87
2022/01/16 07:56:25;;;;;;;11.43;7.00;;;;;;;;;;5010387;28;20041;-83
2022/01/16 07:58:50;;;;;;;9.60;6.03;;;;;;;;;;5015788;28;20056;-84
2022/01/16 08:01:16;;;;;;;8.77;5.95;;;;;;;;;;5015769;28;20072;-85
2022/01/16 08:03:42;;;;;;;10.27;7.00;;;;;;;;;;5033244;28;20512;-81
2022/01/16 08:06:10;;;;;;;7.13;5.22;;;;;;;;;;5028676;28;20371;-85
2022/01/16 08:08:37;;;;;;;10.98;5.45;;;;;;;;;;5031019;28;20021;-81
2022/01/16 08:11:02;;;;;;;9.25;5.70;;;;;;;;;;5030634;28;20025;-84
2022/01/16 08:13:27;;;;;;;9.45;6.05;;;;;;;;;;5012750;28;20025;-84
2022/01/16 08:15:53;;;;;;;10.68;6.30;;;;;;;;;;5030630;28;20057;-84
2022/01/16 08:18:18;;;;;;;9.38;5.63;;;;;;;;;;5015077;28;20519;-84
2022/01/16 08:20:44;;;;;;;12.45;6.70;;;;;;;;;;5029759;28;20042;-85
2022/01/16 08:23:09;;;;;;;7.95;5.15;;;;;;;;;;5028078;28;20060;-82
2022/01/16 08:25:35;;;;;;;8.18;5.53;;;;;;;;;;5014536;28;20017;-82
2022/01/16 08:28:00;;;;;;;11.30;5.80;;;;;;;;;;5011438;28;20504;-85
2022/01/16 08:30:26;;;;;;;9.60;6.07;;;;;;;;;;5032742;28;20037;-83
2022/01/16 08:32:52;;;;;;;9.02;5.53;;;;;;;;;;5015414;28;20163;-84
2022/01/16 08:35:18;;;;;;;11.10;6.15;;;;;;;;;;5027960;28;20048;-81
2022/01/16 08:37:44;;;;;;;9.20;5.10;;;;;;;;;;5030263;28;20025;-84
2022/01/16 08:40:10;;;;;;;9.63;6.03;;;;;;;;;;5030784;28;20025;-84
2022/01/16 08:42:36;;;;;;;10.30;5.97;;;;;;;;;;5031847;28;20025;-82
2022/01/16 08:45:04;;;;;;;9.27;5.38;;;;;;;;;;5028566;28;20052;-82
2022/01/16 08:47:30;;;;;;;8.52;4.68;;;;;;;;;;5029567;28;20032;-82
2022/01/16 08:49:58;;;;;;;7.93;5.38;;;;;;;;;;5013564;28;20033;-83
2022/01/16 08:52:25;;;;;;;8.00;4.38;;;;;;;;;;5028770;28;20431;-84
2022/01/16 08:54:50;;;;;;;9.40;4.85;;;;;;;;;;5028637;28;20029;-83
2022/01/16 08:57:16;;;;;;;10.02;5.20;;;;;;;;;;5031368;28;20392;-85
2022/01/16 08:59:41;;;;;;;10.82;6.05;;;;;;;;;;5027807;28;20108;-85
2022/01/16 09:02:08;;;;;;;11.63;6.13;;;;;;;;;;5031981;28;20033;-82
2022/01/16 09:04:33;;;;;;;7.32;4.13;;;;;;;;;;5030337;28;20029;-85
2022/01/16 09:06:58;;;;;;;9.63;5.82;;;;;;;;;;5014228;28;20021;-84
2022/01/16 09:09:24;;;;;;;8.25;4.78;;;;;;;;;;5013532;28;20091;-86
2022/01/16 09:11:49;;;;;;;12.15;5.68;;;;;;;;;;5013300;28;20021;-87
2022/01/16 09:14:19;;;;;;;9.05;5.72;;;;;;;;;;5006821;28;20406;-86
2022/01/16 09:16:45;;;;;;;7.88;5.25;;;;;;;;;;5012662;28;20433;-88
2022/01/16 09:19:10;;;;;;;10.02;5.60;;;;;;;;;;5014544;28;20060;-84
2022/01/16 09:21:36;;;;;;;8.55;5.63;;;;;;;;;;5013374;28;20052;-86
2022/01/16 09:24:02;;;;;;;7.88;5.18;;;;;;;;;;5030081;28;20041;-86
2022/01/16 09:26:30;;;;;;;11.45;4.65;;;;;;;;;;5030917;28;20437;-83
2022/01/16 09:28:56;;;;;;;14.18;8.45;;;;;;;;;;5028051;28;20124;-83
2022/01/16 09:31:21;;;;;;;11.23;6.50;;;;;;;;;;5026218;28;20448;-82
2022/01/16 09:33:47;;;;;;;12.38;6.80;;;;;;;;;;5013411;28;20033;-83
2022/01/16 09:36:12;;;;;;;14.95;7.28;;;;;;;;;;5027637;28;20363;-84
2022/01/16 09:38:39;;;;;;;12.85;7.35;;;;;;;;;;5031158;28;20025;-83
2022/01/16 09:41:05;;;;;;;12.02;7.55;;;;;;;;;;5031089;28;20104;-84
2022/01/16 09:43:42;;;;;;;10.25;6.38;;;;;;;;;;5030921;28;20017;-85
2022/01/16 09:46:08;;;;;;;9.57;6.75;;;;;;;;;;5030647;28;20691;-84
2022/01/16 09:48:35;;;;;;;11.63;7.00;;;;;;;;;;5000333;28;20109;-81
2022/01/16 09:51:03;;;;;;;10.75;7.32;;;;;;;;;;5030720;28;20064;-81
2022/01/16 09:53:28;;;;;;;16.63;9.57;;;;;;;;;;5030748;28;20501;-82
2022/01/16 09:55:54;;;;;;;21.73;11.60;;;;;;;;;;5032050;28;20056;-81
2022/01/16 09:58:21;;;;;;;19.38;10.55;;;;;;;;;;5030978;28;20025;-82
2022/01/16 10:00:47;;;;;;;14.73;8.98;;;;;;;;;;5012535;28;20108;-85
2022/01/16 10:03:37;;;;;;;17.52;10.25;;;;;;;;;;5031722;28;20026;-83
2022/01/16 10:06:10;;;;;;;16.17;9.35;;;;;;;;;;5022580;28;20037;-84
2022/01/16 10:08:37;;;;;;;15.88;9.38;;;;;;;;;;5030183;28;20036;-83
2022/01/16 10:11:25;;;;;;;14.45;10.27;;;;;;;;;;5030639;28;20033;-86
2022/01/16 10:14:08;;;;;;;13.68;8.95;;;;;;;;;;5029643;28;20044;-88
2022/01/16 10:16:36;;;;;;;15.05;9.70;;;;;;;;;;5029145;28;20035;-84
2022/01/16 10:19:17;;;;;;;18.25;8.88;;;;;;;;;;5024008;28;20033;-80
2022/01/16 10:21:43;;;;;;;21.30;10.68;;;;;;;;;;5032717;28;20079;-82
2022/01/16 10:24:20;;;;;;;17.05;9.77;;;;;;;;;;5034359;28;20050;-82
2022/01/16 10:26:46;;;;;;;18.98;11.27;;;;;;;;;;5013925;28;20091;-82
2022/01/16 10:29:20;;;;;;;16.38;10.30;;;;;;;;;;5034350;28;20424;-84
2022/01/16 10:31:49;;;;;;;14.50;9.02;;;;;;;;;;5014708;28;20113;-83
2022/01/16 10:34:34;;;;;;;21.35;9.82;;;;;;;;;;5017272;28;20039;-85
2022/01/16 10:36:59;;;;;;;21.25;10.00;;;;;;;;;;5015680;28;20025;-84
2022/01/16 10:39:25;;;;;;;17.70;10.77;;;;;;;;;;5034337;28;20029;-82
2022/01/16 10:42:16;;;;;;;33.95;16.70;;;;;;;;;;5014969;28;20035;-86
2022/01/16 10:44:42;;;;;;;29.70;14.52;;;;;;;;;;5014440;28;20100;-85
2022/01/16 10:47:27;;;;;;;31.35;14.93;;;;;;;;;;5034340;28;20432;-83
2022/01/16 10:50:16;;;;;;;37.88;19.35;;;;;;;;;;5035067;28;20033;-84
2022/01/16 10:53:03;;;;;;;19.65;11.90;;;;;;;;;;5011559;28;20535;-83
2022/01/16 10:55:54;;;;;;;19.00;10.45;;;;;;;;;;5031705;28;20434;-83
2022/01/16 10:58:37;;;;;;;24.20;13.02;;;;;;;;;;5034464;28;20037;-88
2022/01/16 11:01:10;;;;;;;25.17;14.20;;;;;;;;;;5016968;28;20504;-90
2022/01/16 11:03:46;;;;;;;22.27;13.77;;;;;;;;;;5015305;28;20025;-83
2022/01/16 11:06:17;;;;;;;29.90;12.50;;;;;;;;;;5028813;28;20029;-83
2022/01/16 11:08:50;;;;;;;21.63;11.48;;;;;;;;;;5034029;28;20108;-83
2022/01/16 11:11:16;;;;;;;16.23;10.27;;;;;;;;;;5033252;28;20045;-82
2022/01/16 11:13:42;;;;;;;17.23;11.65;;;;;;;;;;5033706;28;21363;-83
2022/01/16 11:16:08;;;;;;;19.63;11.23;;;;;;;;;;5033831;28;20033;-82
2022/01/16 11:18:40;;;;;;;21.58;11.63;;;;;;;;;;5034086;28;20037;-83
2022/01/16 11:26:20;;;;;;;16.48;10.00;;;;;;;;;;5035501;28;20025;-86
2022/01/16 11:28:46;;;;;;;20.67;11.90;;;;;;;;;;5017822;28;20029;-89
2022/01/16 11:31:13;;;;;;;18.55;11.13;;;;;;;;;;5014871;28;20083;-83
2022/01/16 11:33:40;;;;;;;17.33;10.65;;;;;;;;;;5022462;28;20111;-85
2022/01/16 11:36:32;;;;;;;21.98;12.55;;;;;;;;;;5014283;28;20113;-83
2022/01/16 11:39:00;;;;;;;23.67;12.68;;;;;;;;;;5028198;28;20025;-87
2022/01/16 11:41:34;;;;;;;23.48;13.20;;;;;;;;;;5014949;28;20117;-83
2022/01/16 11:44:26;;;;;;;19.20;11.65;;;;;;;;;;5030495;28;20040;-83
2022/01/16 11:46:55;;;;;;;23.70;11.13;;;;;;;;;;5024679;28;20048;-83
2022/01/16 11:49:51;;;;;;;24.80;11.82;;;;;;;;;;5015215;28;20116;-83
2022/01/16 11:52:18;;;;;;;18.17;10.90;;;;;;;;;;5014810;28;20041;-82
2022/01/16 11:54:46;;;;;;;18.35;11.23;;;;;;;;;;5030957;28;20021;-84
2022/01/16 11:57:20;;;;;;;15.55;11.15;;;;;;;;;;5019085;28;20109;-84
2022/01/16 11:59:48;;;;;;;20.23;11.45;;;;;;;;;;5033337;28;20359;-84
2022/01/16 12:02:15;;;;;;;21.60;11.82;;;;;;;;;;5029609;28;20466;-85
2022/01/16 12:04:43;;;;;;;21.75;13.13;;;;;;;;;;5033214;28;20097;-85
2022/01/16 12:07:12;;;;;;;22.40;12.75;;;;;;;;;;5012234;28;20112;-84
2022/01/16 12:09:58;;;;;;;24.05;13.63;;;;;;;;;;5031515;28;20037;-83
2022/01/16 12:12:23;;;;;;;20.67;12.13;;;;;;;;;;5030254;28;20393;-84
2022/01/16 12:14:48;;;;;;;19.90;11.25;;;;;;;;;;5015608;28;20029;-83
2022/01/16 12:17:41;;;;;;;13.48;9.13;;;;;;;;;;5035843;28;20031;-83
2022/01/16 12:20:13;;;;;;;18.67;10.90;;;;;;;;;;5016811;28;20548;-83
2022/01/16 12:22:53;;;;;;;21.77;12.68;;;;;;;;;;5033210;28;20386;-84
2022/01/16 12:25:39;;;;;;;23.50;10.70;;;;;;;;;;5015137;28;20025;-84
2022/01/16 12:28:05;;;;;;;18.13;10.02;;;;;;;;;;5030002;28;20041;-83
2022/01/16 12:30:33;;;;;;;16.98;10.27;;;;;;;;;;5014720;28;20030;-83
2022/01/16 12:33:26;;;;;;;14.38;9.57;;;;;;;;;;5032989;28;20032;-83
2022/01/16 12:35:51;;;;;;;15.35;10.75;;;;;;;;;;5014323;28;20041;-83
2022/01/16 12:38:36;;;;;;;19.67;10.65;;;;;;;;;;5033855;28;20074;-83
2022/01/16 12:41:18;;;;;;;21.50;12.43;;;;;;;;;;5029735;28;20116;-83
2022/01/16 12:43:57;;;;;;;20.95;10.88;;;;;;;;;;5030428;28;20022;-83
2022/01/16 12:46:42;;;;;;;19.88;11.45;;;;;;;;;;5014663;28;20028;-84
2022/01/16 12:49:23;;;;;;;21.98;11.88;;;;;;;;;;5014987;28;20024;-84
2022/01/16 12:51:51;;;;;;;22.73;11.30;;;;;;;;;;5031108;28;20025;-83
2022/01/16 12:54:17;;;;;;;16.40;9.27;;;;;;;;;;5032383;28;20036;-83
2022/01/16 12:56:46;;;;;;;16.30;10.00;;;;;;;;;;5030647;28;20105;-85
2022/01/16 12:59:23;;;;;;;17.05;9.63;;;;;;;;;;5031799;28;20040;-83
2022/01/16 13:01:58;;;;;;;16.52;10.60;;;;;;;;;;5013085;28;20549;-84
2022/01/16 13:04:28;;;;;;;19.75;10.48;;;;;;;;;;5030574;28;20408;-83
2022/01/16 13:07:08;;;;;;;16.77;8.90;;;;;;;;;;5031362;28;20037;-83
2022/01/16 13:09:34;;;;;;;;;;;;;;;;;;5032008;28;21180;-83
2022/01/16 13:12:00;;;;;;;18.70;8.95;;;;;;;;;;5014026;28;19963;-83
2022/01/16 13:14:35;;;;;;;16.55;9.60;;;;;;;;;;5014101;28;20198;-83
2022/01/16 13:17:03;;;;;;;19.90;11.00;;;;;;;;;;5031720;28;20075;-83
2022/01/16 13:19:38;;;;;;;17.75;10.98;;;;;;;;;;5031891;28;20104;-83
2022/01/16 13:22:13;;;;;;;17.20;8.98;;;;;;;;;;5031520;28;20523;-83
2022/01/16 13:24:44;;;;;;;13.25;7.70;;;;;;;;;;5014594;28;20057;-83
2022/01/16 13:27:18;;;;;;;10.73;6.60;;;;;;;;;;5013529;28;20046;-83
2022/01/16 13:29:55;;;;;;;14.57;7.80;;;;;;;;;;5014179;28;20105;-83
2022/01/16 13:32:26;;;;;;;10.95;6.95;;;;;;;;;;5013511;28;20120;-83
2022/01/16 13:34:54;;;;;;;11.80;7.40;;;;;;;;;;5014223;28;20472;-82
2022/01/16 13:37:26;;;;;;;12.57;7.30;;;;;;;;;;5014062;28;20029;-83
2022/01/16 13:40:06;;;;;;;13.20;8.55;;;;;;;;;;5031676;28;20026;-83
2022/01/16 13:45:21;;;;;;;16.95;9.18;;;;;;;;;;5030520;28;20025;-82
2022/01/16 13:47:58;;;;;;;14.02;7.22;;;;;;;;;;5031841;28;20324;-82
2022/01/16 13:50:30;;;;;;;12.70;7.63;;;;;;;;;;5013622;28;20057;-82
2022/01/16 13:53:04;;;;;;;8.20;6.30;;;;;;;;;;5029406;28;20034;-82
2022/01/16 13:55:32;;;;;;;10.23;5.68;;;;;;;;;;5011358;28;20037;-82
2022/01/16 13:57:59;;;;;;;11.73;6.63;;;;;;;;;;5031313;28;20034;-83
2022/01/16 14:00:30;;;;;;;11.68;6.45;;;;;;;;;;5031030;28;20496;-82
2022/01/16 14:03:29;;;;;;;12.27;6.85;;;;;;;;;;5016585;28;20477;-81
2022/01/16 14:05:57;;;;;;;9.10;5.87;;;;;;;;;;5030321;28;20616;-82
2022/01/16 14:08:40;;;;;;;10.93;5.97;;;;;;;;;;5031478;28;20052;-82
2022/01/16 14:11:09;;;;;;;12.05;4.90;;;;;;;;;;5011890;28;20034;-82
2022/01/16 14:13:34;;;;;;;10.52;6.40;;;;;;;;;;5011180;28;20060;-83
2022/01/16 14:16:10;;;;;;;11.85;6.63;;;;;;;;;;5030975;28;20080;-83
2022/01/16 14:24:04;;;;;;;8.80;5.50;;;;;;;;;;5029591;28;20046;-82
2022/01/16 14:26:30;;;;;;;10.27;5.32;;;;;;;;;;5031125;28;20037;-82
2022/01/16 14:28:56;;;;;;;10.48;5.40;;;;;;;;;;5030673;28;20048;-82
2022/01/16 14:31:22;;;;;;;10.07;5.85;;;;;;;;;;5030499;28;20474;-82
2022/01/16 14:33:47;;;;;;;9.57;5.35;;;;;;;;;;5030871;28;20037;-83
2022/01/16 14:36:14;;;;;;;11.27;6.40;;;;;;;;;;5012694;28;20026;-82
2022/01/16 14:38:39;;;;;;;9.23;4.90;;;;;;;;;;5030719;28;20037;-82
2022/01/16 14:41:05;;;;;;;6.55;3.80;;;;;;;;;;5030448;28;20040;-82
2022/01/16 14:43:51;;;;;;;16.58;11.68;;;;;;;;;;5013419;28;20025;-82
2022/01/16 14:46:17;;;;;;;17.15;9.38;;;;;;;;;;5029799;28;20028;-82
2022/01/16 14:48:42;;;;;;;11.73;7.40;;;;;;;;;;5030948;28;20045;-82
2022/01/16 14:51:07;;;;;;;7.63;4.35;;;;;;;;;;5030254;28;20116;-82
2022/01/16 14:53:33;;;;;;;10.30;5.38;;;;;;;;;;5030803;28;20099;-83
2022/01/16 14:55:59;;;;;;;13.30;4.72;;;;;;;;;;5029637;28;20108;-82
2022/01/16 14:58:24;;;;;;;7.78;4.40;;;;;;;;;;5020252;28;20029;-82
2022/01/16 15:00:50;;;;;;;8.38;5.22;;;;;;;;;;5030662;28;20087;-82
2022/01/16 15:03:15;;;;;;;8.05;3.97;;;;;;;;;;5030718;28;20021;-82
2022/01/16 15:05:41;;;;;;;8.45;4.65;;;;;;;;;;5012502;28;20048;-82
2022/01/16 15:08:06;;;;;;;8.68;4.97;;;;;;;;;;5013513;28;20072;-82
2022/01/16 15:10:32;;;;;;;9.95;6.43;;;;;;;;;;5034551;28;20033;-82
2022/01/16 15:12:58;;;;;;;11.20;5.20;;;;;;;;;;5016654;28;20083;-82
2022/01/16 15:15:24;;;;;;;9.00;3.55;;;;;;;;;;5034746;28;20022;-81
2022/01/16 15:17:56;;;;;;;10.60;5.80;;;;;;;;;;5034510;28;20436;-82
2022/01/16 15:20:28;;;;;;;11.50;6.63;;;;;;;;;;5034304;28;20029;-83
2022/01/16 15:22:57;;;;;;;12.40;7.30;;;;;;;;;;5014905;28;20049;-83
2022/01/16 15:25:29;;;;;;;10.95;5.82;;;;;;;;;;5032376;28;20029;-82
2022/01/16 15:27:56;;;;;;;8.90;4.57;;;;;;;;;;5033714;28;20045;-82
2022/01/16 15:30:21;;;;;;;5.88;3.50;;;;;;;;;;5033706;28;20025;-83
2022/01/16 15:32:47;;;;;;;9.50;5.32;;;;;;;;;;5034638;28;20068;-82
2022/01/16 15:35:15;;;;;;;9.70;5.15;;;;;;;;;;5033325;28;20033;-82